Time;durP1;ratioP1;P1;durP2;ratioP2;P2;SDS_P1;SDS_P2;PMS_P1;PMS_P2;Temp;Humidity;BMP_temperature;BMP_pressure;BME280_temperature;BME280_humidity;BME280_pressure;Samples;Min_cycle;Max_cycle;Signal;HPM_P1;HPM_P2
2023/06/02 00:02:51;;;;;;;7.57;6.10;;;;;;;;;;8276472;28;20121;-74
2023/06/02 00:06:53;;;;;;;7.75;5.97;;;;;;;;;;8291464;28;20272;-73
2023/06/02 00:10:53;;;;;;;7.82;6.15;;;;;;;;;;8293310;28;20172;-73
2023/06/02 00:14:53;;;;;;;6.80;6.10;;;;;;;;;;8300332;28;20026;-74
2023/06/02 00:18:56;;;;;;;8.88;5.88;;;;;;;;;;8289683;28;20053;-73
2023/06/02 00:22:57;;;;;;;6.43;5.73;;;;;;;;;;8287677;28;20030;-73
2023/06/02 00:26:57;;;;;;;7.57;6.07;;;;;;;;;;8291472;28;20146;-73
2023/06/02 00:30:57;;;;;;;10.35;5.82;;;;;;;;;;8280537;28;20038;-73
2023/06/02 00:34:57;;;;;;;7.43;5.63;;;;;;;;;;8293735;28;20152;-73
2023/06/02 00:38:57;;;;;;;7.05;5.82;;;;;;;;;;8293673;28;20040;-73
2023/06/02 00:43:01;;;;;;;8.00;5.55;;;;;;;;;;8297739;28;20478;-73
2023/06/02 00:47:01;;;;;;;7.90;5.10;;;;;;;;;;8293708;28;20140;-73
2023/06/02 00:51:02;;;;;;;8.68;4.80;;;;;;;;;;8288943;28;20075;-73
2023/06/02 00:55:02;;;;;;;6.60;5.15;;;;;;;;;;8301190;28;20025;-73
2023/06/02 00:59:03;;;;;;;5.20;4.20;;;;;;;;;;8294823;28;20038;-73
2023/06/02 01:03:03;;;;;;;5.47;4.63;;;;;;;;;;8275368;28;20068;-73
2023/06/02 01:07:06;;;;;;;6.77;4.97;;;;;;;;;;8288815;28;20140;-73
2023/06/02 01:11:07;;;;;;;5.80;4.40;;;;;;;;;;8274819;28;20030;-73
2023/06/02 01:15:07;;;;;;;8.27;4.82;;;;;;;;;;8288500;28;20112;-73
2023/06/02 01:19:13;;;;;;;4.50;3.85;;;;;;;;;;8290265;28;20547;-73
2023/06/02 01:23:15;;;;;;;5.60;4.18;;;;;;;;;;8290542;28;20738;-73
2023/06/02 01:27:16;;;;;;;7.40;4.55;;;;;;;;;;8290911;28;20021;-73
2023/06/02 01:31:18;;;;;;;4.70;4.30;;;;;;;;;;8273432;28;20038;-73
2023/06/02 01:35:20;;;;;;;5.90;4.60;;;;;;;;;;8275184;28;20137;-74
2023/06/02 01:39:20;;;;;;;5.80;4.25;;;;;;;;;;8289869;28;20033;-73
2023/06/02 01:43:21;;;;;;;5.47;4.57;;;;;;;;;;8290541;28;20091;-73
2023/06/02 01:47:21;;;;;;;6.60;4.30;;;;;;;;;;8288564;28;20540;-73
2023/06/02 01:51:21;;;;;;;6.28;4.15;;;;;;;;;;8293840;28;20841;-73
2023/06/02 01:55:21;;;;;;;5.90;4.45;;;;;;;;;;8291557;28;20036;-73
2023/06/02 01:59:22;;;;;;;5.60;4.27;;;;;;;;;;8290544;28;20048;-73
2023/06/02 02:03:22;;;;;;;6.22;4.50;;;;;;;;;;8289102;28;20272;-74
2023/06/02 02:07:23;;;;;;;5.25;4.15;;;;;;;;;;8290587;28;20053;-73
2023/06/02 02:11:24;;;;;;;6.75;4.50;;;;;;;;;;8287900;28;20024;-73
2023/06/02 02:15:24;;;;;;;5.65;4.22;;;;;;;;;;8288413;28;20037;-73
2023/06/02 02:19:24;;;;;;;12.18;5.00;;;;;;;;;;8262916;28;20021;-73
2023/06/02 02:23:24;;;;;;;5.68;4.65;;;;;;;;;;8293848;28;20031;-73
2023/06/02 02:27:24;;;;;;;5.13;4.25;;;;;;;;;;8302379;28;20509;-73
2023/06/02 02:31:24;;;;;;;5.65;4.57;;;;;;;;;;8292359;28;20048;-74
2023/06/02 02:35:24;;;;;;;6.20;4.53;;;;;;;;;;8286928;28;20730;-73
2023/06/02 02:39:25;;;;;;;9.05;4.38;;;;;;;;;;8289205;28;20025;-73
2023/06/02 02:43:25;;;;;;;4.95;4.32;;;;;;;;;;8294783;28;20025;-73
2023/06/02 02:47:25;;;;;;;6.22;4.95;;;;;;;;;;8271357;28;20109;-74
2023/06/02 02:51:25;;;;;;;5.88;4.68;;;;;;;;;;8288685;28;20043;-73
2023/06/02 02:55:25;;;;;;;5.87;4.90;;;;;;;;;;8272636;28;20127;-73
2023/06/02 02:59:26;;;;;;;6.15;4.78;;;;;;;;;;8289517;28;20446;-73
2023/06/02 03:03:26;;;;;;;6.47;4.88;;;;;;;;;;8289435;28;20049;-73
2023/06/02 03:07:28;;;;;;;7.85;5.03;;;;;;;;;;8288892;28;20026;-73
2023/06/02 03:11:28;;;;;;;6.22;4.72;;;;;;;;;;8272945;28;20057;-73
2023/06/02 03:15:28;;;;;;;4.97;4.47;;;;;;;;;;8286430;28;20469;-73
2023/06/02 03:19:28;;;;;;;6.43;5.03;;;;;;;;;;8287196;28;20033;-73
2023/06/02 03:23:28;;;;;;;8.63;5.35;;;;;;;;;;8289725;28;20379;-73
2023/06/02 03:27:29;;;;;;;5.88;4.50;;;;;;;;;;8290545;28;20028;-73
2023/06/02 03:31:29;;;;;;;6.05;4.63;;;;;;;;;;8270923;28;20454;-73
2023/06/02 03:35:29;;;;;;;6.28;4.53;;;;;;;;;;8289426;28;20056;-73
2023/06/02 03:39:29;;;;;;;6.15;4.82;;;;;;;;;;8272146;28;20021;-73
2023/06/02 03:43:29;;;;;;;6.93;4.82;;;;;;;;;;8288954;28;20588;-73
2023/06/02 03:47:30;;;;;;;10.32;5.22;;;;;;;;;;8288503;28;20140;-73
2023/06/02 03:51:30;;;;;;;6.78;5.05;;;;;;;;;;8290064;28;20025;-73
2023/06/02 03:55:30;;;;;;;6.22;4.85;;;;;;;;;;8286344;28;20025;-73
2023/06/02 03:59:30;;;;;;;6.28;4.88;;;;;;;;;;8291801;28;20396;-73
2023/06/02 04:03:32;;;;;;;6.00;4.90;;;;;;;;;;8294713;28;20504;-73
2023/06/02 04:07:32;;;;;;;7.15;5.57;;;;;;;;;;8305685;28;20037;-73
2023/06/02 04:11:32;;;;;;;8.02;5.13;;;;;;;;;;8301562;28;20021;-73
2023/06/02 04:15:33;;;;;;;6.18;5.15;;;;;;;;;;8292567;28;20116;-73
2023/06/02 04:19:33;;;;;;;6.65;5.07;;;;;;;;;;8296378;28;20546;-73
2023/06/02 04:23:33;;;;;;;5.55;4.82;;;;;;;;;;8295459;28;20040;-72
2023/06/02 04:27:33;;;;;;;6.87;5.23;;;;;;;;;;8266774;28;20172;-73
2023/06/02 04:31:42;;;;;;;5.70;5.10;;;;;;;;;;8296198;28;20040;-73
2023/06/02 04:35:42;;;;;;;5.82;4.88;;;;;;;;;;8297589;28;20029;-73
2023/06/02 04:39:47;;;;;;;5.68;4.75;;;;;;;;;;8295749;28;20025;-74
2023/06/02 04:43:48;;;;;;;6.38;4.97;;;;;;;;;;8294303;28;20040;-73
2023/06/02 04:47:48;;;;;;;5.85;4.63;;;;;;;;;;8294062;28;20037;-73
2023/06/02 04:51:49;;;;;;;8.17;5.10;;;;;;;;;;8301915;28;20120;-73
2023/06/02 04:55:49;;;;;;;8.80;5.43;;;;;;;;;;8280279;28;20029;-73
2023/06/02 04:59:50;;;;;;;7.25;5.07;;;;;;;;;;8292291;28;20048;-73
2023/06/02 05:03:51;;;;;;;6.35;4.90;;;;;;;;;;8294261;28;20045;-73
2023/06/02 05:07:52;;;;;;;6.10;4.80;;;;;;;;;;8279451;28;20057;-72
2023/06/02 05:11:53;;;;;;;5.20;4.47;;;;;;;;;;8298203;28;20025;-73
2023/06/02 05:15:53;;;;;;;6.85;5.07;;;;;;;;;;8291809;28;20049;-73
2023/06/02 05:19:54;;;;;;;6.50;4.95;;;;;;;;;;8279197;28;20041;-73
2023/06/02 05:23:54;;;;;;;6.20;4.63;;;;;;;;;;8301481;28;20030;-73
2023/06/02 05:27:55;;;;;;;6.80;5.25;;;;;;;;;;8292739;28;20475;-74
2023/06/02 05:31:55;;;;;;;6.90;5.30;;;;;;;;;;8303006;28;20033;-74
2023/06/02 05:35:55;;;;;;;5.72;5.13;;;;;;;;;;8287366;28;20129;-73
2023/06/02 05:39:58;;;;;;;7.45;5.20;;;;;;;;;;8302819;28;20033;-73
2023/06/02 05:43:58;;;;;;;5.65;4.97;;;;;;;;;;8270648;28;20032;-73
2023/06/02 05:47:58;;;;;;;5.65;4.20;;;;;;;;;;8304486;28;20792;-73
2023/06/02 05:51:58;;;;;;;9.00;5.28;;;;;;;;;;8280506;28;21086;-73
2023/06/02 05:55:58;;;;;;;7.78;5.03;;;;;;;;;;8296746;28;20593;-73
2023/06/02 05:59:58;;;;;;;7.15;4.95;;;;;;;;;;8302616;28;20092;-73
2023/06/02 06:03:58;;;;;;;7.18;4.85;;;;;;;;;;8296912;28;20065;-73
2023/06/02 06:07:59;;;;;;;6.50;4.68;;;;;;;;;;8315853;28;20761;-73
2023/06/02 06:11:59;;;;;;;9.13;5.03;;;;;;;;;;8307132;28;20139;-73
2023/06/02 06:16:01;;;;;;;8.73;4.82;;;;;;;;;;8299875;28;20084;-73
2023/06/02 06:20:01;;;;;;;7.85;4.93;;;;;;;;;;8297165;28;20477;-73
2023/06/02 06:24:02;;;;;;;6.82;4.72;;;;;;;;;;8317809;28;20021;-73
2023/06/02 06:28:02;;;;;;;7.63;4.60;;;;;;;;;;8302556;28;20029;-73
2023/06/02 06:32:02;;;;;;;5.72;4.30;;;;;;;;;;8297543;28;20661;-73
2023/06/02 06:36:02;;;;;;;6.03;3.90;;;;;;;;;;8298348;28;20025;-73
2023/06/02 06:40:03;;;;;;;7.57;4.20;;;;;;;;;;8313338;28;20036;-73
2023/06/02 06:44:03;;;;;;;5.85;4.28;;;;;;;;;;8309864;28;20033;-73
2023/06/02 06:48:04;;;;;;;7.43;4.47;;;;;;;;;;8310237;28;20095;-72
2023/06/02 06:52:04;;;;;;;10.40;4.50;;;;;;;;;;8317679;28;20482;-73
2023/06/02 06:56:05;;;;;;;7.50;4.63;;;;;;;;;;8318198;28;20529;-73
2023/06/02 07:00:06;;;;;;;5.20;4.17;;;;;;;;;;8313005;28;20310;-73
2023/06/02 07:04:06;;;;;;;6.63;4.22;;;;;;;;;;8305576;28;20272;-73
2023/06/02 07:08:10;;;;;;;5.90;4.00;;;;;;;;;;8308846;28;20076;-74
2023/06/02 07:12:10;;;;;;;7.15;4.38;;;;;;;;;;8294205;28;20017;-74
2023/06/02 07:16:10;;;;;;;6.25;3.92;;;;;;;;;;8291436;28;20052;-73
2023/06/02 07:20:11;;;;;;;6.65;4.18;;;;;;;;;;8316763;28;20017;-74
2023/06/02 07:24:12;;;;;;;5.82;4.28;;;;;;;;;;8316697;28;20028;-73
2023/06/02 07:28:12;;;;;;;5.57;4.10;;;;;;;;;;8297407;28;20026;-73
2023/06/02 07:32:12;;;;;;;8.67;4.80;;;;;;;;;;8277972;28;20064;-73
2023/06/02 07:36:13;;;;;;;5.43;3.97;;;;;;;;;;8299158;28;20276;-73
2023/06/02 07:40:13;;;;;;;5.20;3.80;;;;;;;;;;8301838;28;20036;-74
2023/06/02 07:44:14;;;;;;;8.18;4.30;;;;;;;;;;8288967;28;20036;-74
2023/06/02 07:48:15;;;;;;;5.75;3.50;;;;;;;;;;8290446;28;20030;-74
2023/06/02 07:52:15;;;;;;;6.22;3.72;;;;;;;;;;8268921;28;20143;-74
2023/06/02 07:56:15;;;;;;;6.20;3.90;;;;;;;;;;8286501;28;20040;-74
2023/06/02 08:00:17;;;;;;;7.63;3.60;;;;;;;;;;8285100;28;20411;-74
2023/06/02 08:04:17;;;;;;;5.68;3.85;;;;;;;;;;8285117;28;20726;-74
2023/06/02 08:08:17;;;;;;;6.28;4.00;;;;;;;;;;8269304;28;20053;-74
2023/06/02 08:12:17;;;;;;;5.72;3.60;;;;;;;;;;8287464;28;20061;-74
2023/06/02 08:16:18;;;;;;;6.35;3.85;;;;;;;;;;8271750;28;20037;-74
2023/06/02 08:20:18;;;;;;;6.53;3.90;;;;;;;;;;8264662;28;20148;-73
2023/06/02 08:24:20;;;;;;;6.25;3.70;;;;;;;;;;8272260;28;20409;-73
2023/06/02 08:28:24;;;;;;;5.90;3.80;;;;;;;;;;8269100;28;20025;-74
2023/06/02 08:32:25;;;;;;;5.85;3.38;;;;;;;;;;8266945;28;20029;-74
2023/06/02 08:36:26;;;;;;;6.07;3.70;;;;;;;;;;8283623;28;20028;-74
2023/06/02 08:40:32;;;;;;;6.30;3.40;;;;;;;;;;8287426;28;20017;-74
2023/06/02 08:44:32;;;;;;;7.60;3.47;;;;;;;;;;8260584;28;20036;-74
2023/06/02 08:48:33;;;;;;;5.55;3.70;;;;;;;;;;8289849;28;20042;-74
2023/06/02 08:52:36;;;;;;;5.55;3.20;;;;;;;;;;8263416;28;20422;-74
2023/06/02 08:56:36;;;;;;;4.63;3.37;;;;;;;;;;8273770;28;20613;-73
2023/06/02 09:00:37;;;;;;;5.80;3.23;;;;;;;;;;8271664;28;20135;-74
2023/06/02 09:04:37;;;;;;;7.15;3.03;;;;;;;;;;8280635;28;20063;-74
2023/06/02 09:08:50;;;;;;;6.85;3.72;;;;;;;;;;8299939;28;20028;-74
2023/06/02 09:12:50;;;;;;;5.05;3.20;;;;;;;;;;8289568;28;20033;-74
2023/06/02 09:16:50;;;;;;;4.95;3.03;;;;;;;;;;8291447;28;20041;-74
2023/06/02 09:20:52;;;;;;;5.22;3.17;;;;;;;;;;8289682;28;20052;-74
2023/06/02 09:24:55;;;;;;;5.88;3.28;;;;;;;;;;8272498;28;20026;-74
2023/06/02 09:29:03;;;;;;;6.13;3.30;;;;;;;;;;8265653;28;20040;-75
2023/06/02 09:33:08;;;;;;;5.65;3.33;;;;;;;;;;8299549;28;20037;-74
2023/06/02 09:37:09;;;;;;;6.45;3.17;;;;;;;;;;8294582;28;20056;-74
2023/06/02 09:41:16;;;;;;;5.20;3.50;;;;;;;;;;8293119;28;20021;-74
2023/06/02 09:45:17;;;;;;;7.35;3.60;;;;;;;;;;8316010;28;20617;-74
2023/06/02 09:49:17;;;;;;;7.53;3.70;;;;;;;;;;8290685;28;20080;-74
2023/06/02 09:53:18;;;;;;;4.05;2.92;;;;;;;;;;8296647;28;20445;-74
2023/06/02 09:57:18;;;;;;;5.45;3.10;;;;;;;;;;8284226;28;20029;-74
2023/06/02 10:01:18;;;;;;;9.02;3.25;;;;;;;;;;8291786;28;20042;-74
2023/06/02 10:05:20;;;;;;;5.38;3.13;;;;;;;;;;8291563;28;20025;-74
2023/06/02 10:09:26;;;;;;;4.95;3.55;;;;;;;;;;8294360;28;20040;-74
2023/06/02 10:13:33;;;;;;;5.50;3.20;;;;;;;;;;8292443;28;20029;-74
2023/06/02 10:17:43;;;;;;;6.00;2.90;;;;;;;;;;8291593;28;20098;-74
2023/06/02 10:22:02;;;;;;;4.50;3.05;;;;;;;;;;8301684;28;20104;-74
2023/06/02 10:26:18;;;;;;;6.38;2.92;;;;;;;;;;8290396;28;20028;-74
2023/06/02 10:30:19;;;;;;;6.85;2.78;;;;;;;;;;8290411;28;20044;-74
2023/06/02 10:34:35;;;;;;;4.00;2.90;;;;;;;;;;8291198;28;20896;-75
2023/06/02 10:38:36;;;;;;;5.05;2.78;;;;;;;;;;8292575;28;20087;-75
2023/06/02 10:42:37;;;;;;;4.70;2.85;;;;;;;;;;8291333;28;20493;-74
2023/06/02 10:46:37;;;;;;;4.03;2.80;;;;;;;;;;8265019;28;20044;-75
2023/06/02 10:50:51;;;;;;;6.28;3.10;;;;;;;;;;8294522;28;20014;-75
2023/06/02 10:55:07;;;;;;;6.15;3.20;;;;;;;;;;8268482;28;20029;-75
2023/06/02 10:59:08;;;;;;;6.95;3.30;;;;;;;;;;8292005;28;20029;-75
2023/06/02 11:03:11;;;;;;;3.97;2.75;;;;;;;;;;8285708;28;20088;-74
2023/06/02 11:07:15;;;;;;;7.35;3.28;;;;;;;;;;8282441;28;20057;-74
2023/06/02 11:11:35;;;;;;;4.85;3.10;;;;;;;;;;8285254;28;20023;-74
2023/06/02 11:15:36;;;;;;;7.18;3.05;;;;;;;;;;8283709;28;20069;-74
2023/06/02 11:19:46;;;;;;;4.55;2.80;;;;;;;;;;8268754;28;20034;-74
2023/06/02 11:23:46;;;;;;;6.60;3.40;;;;;;;;;;8286141;28;20021;-74
2023/06/02 11:27:46;;;;;;;5.53;3.40;;;;;;;;;;8283545;28;20094;-74
2023/06/02 11:31:47;;;;;;;5.50;3.00;;;;;;;;;;8285797;28;20661;-74
2023/06/02 11:35:47;;;;;;;7.15;3.42;;;;;;;;;;8284197;28;20279;-74
2023/06/02 11:39:48;;;;;;;7.75;3.58;;;;;;;;;;8290097;28;20025;-73
2023/06/02 11:43:50;;;;;;;14.43;3.65;;;;;;;;;;8284220;28;20030;-73
2023/06/02 11:47:59;;;;;;;7.80;3.55;;;;;;;;;;8267839;28;20041;-74
2023/06/02 11:52:00;;;;;;;7.88;2.85;;;;;;;;;;8287442;28;20145;-74
2023/06/02 11:56:00;;;;;;;9.05;3.17;;;;;;;;;;8284915;28;20057;-73
2023/06/02 12:00:06;;;;;;;7.43;3.00;;;;;;;;;;8287670;28;20033;-74
2023/06/02 12:04:07;;;;;;;6.72;2.92;;;;;;;;;;8283483;28;20044;-73
2023/06/02 12:08:24;;;;;;;5.30;2.72;;;;;;;;;;8267640;28;20017;-74
2023/06/02 12:12:25;;;;;;;7.50;2.83;;;;;;;;;;8283617;28;20017;-73
2023/06/02 12:16:25;;;;;;;4.45;2.80;;;;;;;;;;8265191;28;20199;-74
2023/06/02 12:20:39;;;;;;;4.20;2.50;;;;;;;;;;8282887;28;20040;-73
2023/06/02 12:24:40;;;;;;;59.33;14.93;;;;;;;;;;8290403;28;20653;-73
2023/06/02 12:28:41;;;;;;;11.02;3.65;;;;;;;;;;8290711;28;21092;-73
2023/06/02 12:32:41;;;;;;;6.75;2.72;;;;;;;;;;8275756;28;20037;-74
2023/06/02 12:36:42;;;;;;;5.33;2.63;;;;;;;;;;8290592;28;20029;-74
2023/06/02 12:40:42;;;;;;;6.03;2.88;;;;;;;;;;8290653;28;20280;-75
2023/06/02 12:44:43;;;;;;;7.07;2.55;;;;;;;;;;8289967;28;20024;-74
2023/06/02 12:48:43;;;;;;;18.07;3.87;;;;;;;;;;8290867;28;20033;-74
2023/06/02 12:52:43;;;;;;;7.83;2.33;;;;;;;;;;8288191;28;21196;-74
2023/06/02 12:56:43;;;;;;;5.85;2.55;;;;;;;;;;8289893;28;20275;-73
2023/06/02 13:00:43;;;;;;;50.50;4.15;;;;;;;;;;8272715;28;20124;-74
2023/06/02 13:04:45;;;;;;;4.55;2.03;;;;;;;;;;8291308;28;20516;-74
2023/06/02 13:08:46;;;;;;;11.10;2.17;;;;;;;;;;8272980;28;20108;-74
2023/06/02 13:12:47;;;;;;;5.97;2.20;;;;;;;;;;8288502;28;20378;-74
2023/06/02 13:16:48;;;;;;;5.78;2.20;;;;;;;;;;8285986;28;20037;-74
2023/06/02 13:20:50;;;;;;;7.63;2.17;;;;;;;;;;8270246;28;20025;-74
2023/06/02 13:24:50;;;;;;;5.97;1.95;;;;;;;;;;8289286;28;20284;-74
2023/06/02 13:28:50;;;;;;;6.73;2.00;;;;;;;;;;8297121;28;20557;-74
2023/06/02 13:32:50;;;;;;;6.22;2.10;;;;;;;;;;8276278;28;20683;-74
2023/06/02 13:36:51;;;;;;;8.55;2.10;;;;;;;;;;8274081;28;20865;-75
2023/06/02 13:40:51;;;;;;;11.27;2.10;;;;;;;;;;8290607;28;20132;-75
2023/06/02 13:44:52;;;;;;;3.42;1.60;;;;;;;;;;8298300;28;20149;-75
2023/06/02 13:48:52;;;;;;;8.75;1.70;;;;;;;;;;8274410;28;20044;-74
2023/06/02 13:52:52;;;;;;;6.00;1.70;;;;;;;;;;8289863;28;20036;-75
2023/06/02 13:56:52;;;;;;;8.10;1.50;;;;;;;;;;8287404;28;20128;-75
2023/06/02 14:00:53;;;;;;;4.80;1.83;;;;;;;;;;8275143;28;20103;-75
2023/06/02 14:04:53;;;;;;;4.28;1.88;;;;;;;;;;8278296;28;20520;-75
2023/06/02 14:08:53;;;;;;;3.28;1.70;;;;;;;;;;8286849;28;20029;-76
2023/06/02 14:12:53;;;;;;;4.80;1.95;;;;;;;;;;8269792;28;20075;-75
2023/06/02 14:16:53;;;;;;;10.43;2.17;;;;;;;;;;8293700;28;20045;-75
2023/06/02 14:20:54;;;;;;;5.97;2.10;;;;;;;;;;8285208;28;20037;-75
2023/06/02 14:24:54;;;;;;;5.37;1.83;;;;;;;;;;8284847;28;20148;-75
2023/06/02 14:28:54;;;;;;;5.85;1.80;;;;;;;;;;8268538;28;20037;-75
2023/06/02 14:32:54;;;;;;;4.40;1.73;;;;;;;;;;8293213;28;20052;-75
2023/06/02 14:36:56;;;;;;;5.72;1.63;;;;;;;;;;8294837;28;21784;-76
2023/06/02 14:40:56;;;;;;;3.63;1.58;;;;;;;;;;8287818;28;20029;-76
2023/06/02 14:44:56;;;;;;;3.20;1.90;;;;;;;;;;8266627;28;20095;-77
2023/06/02 14:48:56;;;;;;;7.15;2.47;;;;;;;;;;8285022;28;20044;-74
2023/06/02 14:52:57;;;;;;;5.40;1.80;;;;;;;;;;8268410;28;20009;-77
2023/06/02 14:56:57;;;;;;;7.93;1.95;;;;;;;;;;8285175;28;20057;-76
2023/06/02 15:00:57;;;;;;;5.88;1.98;;;;;;;;;;8289102;28;20038;-76
2023/06/02 15:04:57;;;;;;;3.80;2.00;;;;;;;;;;8292803;28;20067;-76
2023/06/02 15:08:58;;;;;;;4.85;1.95;;;;;;;;;;8285146;28;20033;-76
2023/06/02 15:12:58;;;;;;;3.88;2.03;;;;;;;;;;8286642;28;20176;-76
2023/06/02 15:16:58;;;;;;;5.40;2.20;;;;;;;;;;8269737;28;20041;-76
2023/06/02 15:20:58;;;;;;;4.32;2.20;;;;;;;;;;8257084;28;20029;-76
2023/06/02 15:24:59;;;;;;;6.63;4.80;;;;;;;;;;8287975;28;20043;-75
2023/06/02 15:28:59;;;;;;;6.43;2.58;;;;;;;;;;8283570;28;20092;-76
2023/06/02 15:33:00;;;;;;;6.93;2.40;;;;;;;;;;8283762;28;20057;-77
2023/06/02 15:37:00;;;;;;;5.15;2.72;;;;;;;;;;8285170;28;20100;-75
2023/06/02 15:41:01;;;;;;;17.55;2.58;;;;;;;;;;8286549;28;20029;-76
2023/06/02 15:45:02;;;;;;;9.68;4.35;;;;;;;;;;8283454;28;20611;-76
2023/06/02 15:49:02;;;;;;;8.52;3.42;;;;;;;;;;8286758;28;20038;-76
2023/06/02 15:53:02;;;;;;;10.57;6.50;;;;;;;;;;8288000;28;20036;-79
2023/06/02 15:57:03;;;;;;;27.00;16.57;;;;;;;;;;8282499;28;20020;-79
2023/06/02 16:01:03;;;;;;;33.25;25.95;;;;;;;;;;8284872;28;20041;-80
2023/06/02 16:05:03;;;;;;;21.55;14.35;;;;;;;;;;8287400;28;20120;-75
2023/06/02 16:09:06;;;;;;;322.53;287.43;;;;;;;;;;8294479;28;20072;-76
2023/06/02 16:13:06;;;;;;;37.63;28.58;;;;;;;;;;8284855;28;20280;-72
2023/06/02 16:17:07;;;;;;;14.48;7.03;;;;;;;;;;8284497;28;20049;-79
2023/06/02 16:21:07;;;;;;;13.75;4.68;;;;;;;;;;8288816;28;20140;-77
2023/06/02 16:25:07;;;;;;;9.38;4.68;;;;;;;;;;8271153;28;20029;-75
2023/06/02 16:29:08;;;;;;;10.68;6.85;;;;;;;;;;8262333;28;20072;-76
2023/06/02 16:33:08;;;;;;;612.40;289.65;;;;;;;;;;8281936;28;20034;-76
2023/06/02 16:37:08;;;;;;;272.25;221.32;;;;;;;;;;8266994;28;20025;-76
2023/06/02 16:41:09;;;;;;;63.10;47.25;;;;;;;;;;8296347;28;20048;-76
2023/06/02 16:45:09;;;;;;;56.97;42.20;;;;;;;;;;8286584;28;20652;-80
2023/06/02 16:49:09;;;;;;;88.22;65.22;;;;;;;;;;8282904;28;20037;-76
2023/06/02 16:53:10;;;;;;;188.67;123.40;;;;;;;;;;8285249;28;20060;-76
2023/06/02 16:57:11;;;;;;;208.60;152.80;;;;;;;;;;8267709;28;20029;-77
2023/06/02 17:01:11;;;;;;;119.00;76.25;;;;;;;;;;8262818;28;20050;-74
2023/06/02 17:05:11;;;;;;;110.47;75.70;;;;;;;;;;8266103;28;20034;-77
2023/06/02 17:09:13;;;;;;;219.25;155.25;;;;;;;;;;8271786;28;20025;-76
2023/06/02 17:13:13;;;;;;;181.65;126.28;;;;;;;;;;8291131;28;20025;-75
2023/06/02 17:17:15;;;;;;;58.63;36.10;;;;;;;;;;8285960;28;20049;-79
2023/06/02 17:21:15;;;;;;;189.10;132.25;;;;;;;;;;8287108;28;20299;-76
2023/06/02 17:25:16;;;;;;;54.47;32.80;;;;;;;;;;8291648;28;20037;-74
2023/06/02 17:29:16;;;;;;;27.90;19.40;;;;;;;;;;8292003;28;20615;-75
2023/06/02 17:33:16;;;;;;;22.70;12.17;;;;;;;;;;8274037;28;20038;-77
2023/06/02 17:37:17;;;;;;;19.35;11.75;;;;;;;;;;8289814;28;20291;-78
2023/06/02 17:41:18;;;;;;;10.02;5.45;;;;;;;;;;8286471;28;20101;-77
2023/06/02 17:45:18;;;;;;;48.90;24.45;;;;;;;;;;8287313;28;20113;-79
2023/06/02 17:49:18;;;;;;;17.13;6.00;;;;;;;;;;8271891;28;20033;-76
2023/06/02 17:53:18;;;;;;;23.02;10.40;;;;;;;;;;8289662;28;20052;-76
2023/06/02 17:57:19;;;;;;;13.77;5.28;;;;;;;;;;8288132;28;20128;-76
2023/06/02 18:01:19;;;;;;;10.65;5.72;;;;;;;;;;8285571;28;20132;-75
2023/06/02 18:05:19;;;;;;;72.97;52.17;;;;;;;;;;8287763;28;20124;-74
2023/06/02 18:09:19;;;;;;;15.00;9.98;;;;;;;;;;8286882;28;20313;-75
2023/06/02 18:13:20;;;;;;;13.48;6.03;;;;;;;;;;8287974;28;20124;-75
2023/06/02 18:17:20;;;;;;;186.27;129.30;;;;;;;;;;8292560;28;20081;-74
2023/06/02 18:21:20;;;;;;;46.22;31.77;;;;;;;;;;8287826;28;20029;-76
2023/06/02 18:25:20;;;;;;;15.33;9.60;;;;;;;;;;8284403;28;20033;-74
2023/06/02 18:29:21;;;;;;;15.43;5.35;;;;;;;;;;8284403;28;20087;-75
2023/06/02 18:33:21;;;;;;;9.00;4.53;;;;;;;;;;8286029;28;20029;-78
2023/06/02 18:37:22;;;;;;;11.30;4.05;;;;;;;;;;8290259;28;20053;-74
2023/06/02 18:41:22;;;;;;;7.32;3.70;;;;;;;;;;8292785;28;20822;-76
2023/06/02 18:45:22;;;;;;;6.03;3.60;;;;;;;;;;8291422;28;20149;-75
2023/06/02 18:49:23;;;;;;;6.40;2.83;;;;;;;;;;8284421;28;20060;-73
2023/06/02 18:53:23;;;;;;;6.72;3.30;;;;;;;;;;8298181;28;20120;-73
2023/06/02 18:57:23;;;;;;;7.90;3.15;;;;;;;;;;8283540;28;20492;-73
2023/06/02 19:01:26;;;;;;;6.78;2.97;;;;;;;;;;8283546;28;20076;-74
2023/06/02 19:05:27;;;;;;;8.50;3.00;;;;;;;;;;8288327;28;20029;-75
2023/06/02 19:09:27;;;;;;;9.20;3.33;;;;;;;;;;8281217;28;20091;-74
2023/06/02 19:13:28;;;;;;;5.17;2.80;;;;;;;;;;8280958;28;20025;-75
2023/06/02 19:17:29;;;;;;;9.95;3.08;;;;;;;;;;8286524;28;20037;-74
2023/06/02 19:21:29;;;;;;;6.55;3.03;;;;;;;;;;8285179;28;20028;-74
2023/06/02 19:25:29;;;;;;;6.63;2.80;;;;;;;;;;8269963;28;20041;-75
2023/06/02 19:29:29;;;;;;;9.73;3.70;;;;;;;;;;8284925;28;20335;-75
2023/06/02 19:33:30;;;;;;;7.93;2.83;;;;;;;;;;8272809;28;20064;-75
2023/06/02 19:37:30;;;;;;;6.70;3.20;;;;;;;;;;8271063;28;20029;-74
2023/06/02 19:41:30;;;;;;;8.30;3.00;;;;;;;;;;8276327;28;20029;-75
2023/06/02 19:45:31;;;;;;;7.10;3.10;;;;;;;;;;8284171;28;20088;-76
2023/06/02 19:49:31;;;;;;;4.25;2.42;;;;;;;;;;8271207;28;20033;-74
2023/06/02 19:53:31;;;;;;;7.43;3.10;;;;;;;;;;8286135;28;20037;-75
2023/06/02 19:57:31;;;;;;;7.70;2.88;;;;;;;;;;8289899;28;20039;-76
2023/06/02 20:01:32;;;;;;;7.95;2.92;;;;;;;;;;8283848;28;20041;-75
2023/06/02 20:05:32;;;;;;;11.95;3.03;;;;;;;;;;8287133;28;20064;-75
2023/06/02 20:09:32;;;;;;;14.48;3.10;;;;;;;;;;8269608;28;20022;-74
2023/06/02 20:13:32;;;;;;;22.35;4.18;;;;;;;;;;8282950;28;20036;-73
2023/06/02 20:17:32;;;;;;;20.90;3.60;;;;;;;;;;8281541;28;20123;-74
2023/06/02 20:21:33;;;;;;;17.98;10.02;;;;;;;;;;8281475;28;20315;-77
2023/06/02 20:25:33;;;;;;;7.43;2.67;;;;;;;;;;8262793;28;20032;-73
2023/06/02 20:29:33;;;;;;;8.68;2.70;;;;;;;;;;8281947;28;20067;-73
2023/06/02 20:33:34;;;;;;;16.65;9.88;;;;;;;;;;8289421;28;20099;-72
2023/06/02 20:37:36;;;;;;;7.18;2.90;;;;;;;;;;8285967;28;20960;-72
2023/06/02 20:41:36;;;;;;;7.85;2.53;;;;;;;;;;8287063;28;20578;-73
2023/06/02 20:45:36;;;;;;;26.42;12.45;;;;;;;;;;8284792;28;20212;-76
2023/06/02 20:49:36;;;;;;;9.02;4.30;;;;;;;;;;8290593;28;20057;-74
2023/06/02 20:53:37;;;;;;;9.63;5.43;;;;;;;;;;8285611;28;20029;-74
2023/06/02 20:57:37;;;;;;;6.47;2.80;;;;;;;;;;8288330;28;20112;-72
2023/06/02 21:01:38;;;;;;;7.43;2.50;;;;;;;;;;8290461;28;20041;-72
2023/06/02 21:05:38;;;;;;;7.05;2.75;;;;;;;;;;8291385;28;20049;-72
2023/06/02 21:09:38;;;;;;;41.65;25.73;;;;;;;;;;8286415;28;20033;-72
2023/06/02 21:13:41;;;;;;;10.47;4.60;;;;;;;;;;8270118;28;20048;-72
2023/06/02 21:17:42;;;;;;;5.82;3.33;;;;;;;;;;8287752;28;20138;-73
2023/06/02 21:21:42;;;;;;;8.63;2.77;;;;;;;;;;8290429;28;20045;-72
2023/06/02 21:25:42;;;;;;;4.80;2.67;;;;;;;;;;8290793;28;20386;-72
2023/06/02 21:29:43;;;;;;;9.93;3.47;;;;;;;;;;8288234;28;20066;-73
2023/06/02 21:33:43;;;;;;;10.13;6.10;;;;;;;;;;8290633;28;20025;-72
2023/06/02 21:37:43;;;;;;;4.40;2.90;;;;;;;;;;8301146;28;20421;-73
2023/06/02 21:41:43;;;;;;;4.15;2.22;;;;;;;;;;8289716;28;20469;-72
2023/06/02 21:45:43;;;;;;;5.70;2.40;;;;;;;;;;8271552;28;20041;-72
2023/06/02 21:49:44;;;;;;;6.35;2.63;;;;;;;;;;8286231;28;20497;-73
2023/06/02 21:53:44;;;;;;;5.72;2.58;;;;;;;;;;8287993;28;20623;-72
2023/06/02 21:57:44;;;;;;;11.43;3.07;;;;;;;;;;8289467;28;20112;-72
2023/06/02 22:01:44;;;;;;;8.57;3.17;;;;;;;;;;8284504;28;20179;-73
2023/06/02 22:05:44;;;;;;;12.65;3.33;;;;;;;;;;8295243;28;20037;-74
2023/06/02 22:09:45;;;;;;;7.23;3.80;;;;;;;;;;8292979;28;20450;-73
2023/06/02 22:13:46;;;;;;;7.55;3.10;;;;;;;;;;8272845;28;20482;-73
2023/06/02 22:17:46;;;;;;;8.32;2.97;;;;;;;;;;8287991;28;20099;-74
2023/06/02 22:21:46;;;;;;;28.20;16.55;;;;;;;;;;8269590;28;20033;-73
2023/06/02 22:25:46;;;;;;;243.30;136.48;;;;;;;;;;8269890;28;20032;-73
2023/06/02 22:29:46;;;;;;;26.23;15.25;;;;;;;;;;8285618;28;20029;-72
2023/06/02 22:33:47;;;;;;;15.63;8.20;;;;;;;;;;8271050;28;20026;-72
2023/06/02 22:37:47;;;;;;;7.65;3.75;;;;;;;;;;8284289;28;20033;-72
2023/06/02 22:41:49;;;;;;;8.18;3.88;;;;;;;;;;8279098;28;20026;-72
2023/06/02 22:45:49;;;;;;;7.68;2.60;;;;;;;;;;8281186;28;20044;-73
2023/06/02 22:49:49;;;;;;;9.33;3.57;;;;;;;;;;8284089;28;20017;-73
2023/06/02 22:53:49;;;;;;;8.87;2.63;;;;;;;;;;8281116;28;20097;-73
2023/06/02 22:57:49;;;;;;;8.65;3.05;;;;;;;;;;8255820;28;20286;-73
2023/06/02 23:01:50;;;;;;;9.50;3.17;;;;;;;;;;8279605;28;20041;-73
2023/06/02 23:05:50;;;;;;;11.32;3.35;;;;;;;;;;8272885;28;20049;-73
2023/06/02 23:09:50;;;;;;;16.15;4.80;;;;;;;;;;8274027;28;20018;-73
2023/06/02 23:13:51;;;;;;;12.23;3.45;;;;;;;;;;8281327;28;20017;-73
2023/06/02 23:17:51;;;;;;;15.13;6.18;;;;;;;;;;8263029;28;20128;-73
2023/06/02 23:21:51;;;;;;;15.35;4.45;;;;;;;;;;8268594;28;21053;-73
2023/06/02 23:25:51;;;;;;;6.15;2.60;;;;;;;;;;8280502;28;20029;-73
2023/06/02 23:29:51;;;;;;;6.20;1.90;;;;;;;;;;8280994;28;20036;-73
2023/06/02 23:33:52;;;;;;;4.63;2.03;;;;;;;;;;8287497;28;20069;-72
2023/06/02 23:37:52;;;;;;;4.63;1.73;;;;;;;;;;8283701;28;20036;-73
2023/06/02 23:41:52;;;;;;;6.35;1.77;;;;;;;;;;8281641;28;20080;-73
2023/06/02 23:45:52;;;;;;;9.10;2.58;;;;;;;;;;8287496;28;20049;-72
2023/06/02 23:49:52;;;;;;;9.48;4.20;;;;;;;;;;8265353;28;20120;-73
2023/06/02 23:53:53;;;;;;;6.23;3.10;;;;;;;;;;8293782;28;20259;-72
2023/06/02 23:57:53;;;;;;;34.70;22.00;;;;;;;;;;8275146;28;20033;-73
